sensor_id;sensor_type;location;lat;lon;timestamp;temperature;humidity
20528;DHT22;23612;50.894;10.700;2023-03-01T07:21:33;0.60;99.90
20528;DHT22;23612;50.894;10.700;2023-03-01T07:23:58;1.00;99.90
20528;DHT22;23612;50.894;10.700;2023-03-01T07:26:24;1.40;99.90
20528;DHT22;23612;50.894;10.700;2023-03-01T07:28:49;2.10;99.90
20528;DHT22;23612;50.894;10.700;2023-03-01T07:31:15;2.40;99.90
20528;DHT22;23612;50.894;10.700;2023-03-01T07:33:40;2.90;99.90
20528;DHT22;23612;50.894;10.700;2023-03-01T07:36:06;3.40;99.90
20528;DHT22;23612;50.894;10.700;2023-03-01T07:38:32;3.50;99.90
20528;DHT22;23612;50.894;10.700;2023-03-01T07:40:59;3.50;99.90
20528;DHT22;23612;50.894;10.700;2023-03-01T07:43:26;3.60;99.90
20528;DHT22;23612;50.894;10.700;2023-03-01T07:45:51;4.10;99.90
20528;DHT22;23612;50.894;10.700;2023-03-01T07:48:17;4.80;99.90
20528;DHT22;23612;50.894;10.700;2023-03-01T07:50:42;5.50;99.90
20528;DHT22;23612;50.894;10.700;2023-03-01T07:53:09;6.60;99.90
20528;DHT22;23612;50.894;10.700;2023-03-01T07:55:34;6.90;99.90
20528;DHT22;23612;50.894;10.700;2023-03-01T07:57:59;6.70;99.90
20528;DHT22;23612;50.894;10.700;2023-03-01T08:00:25;6.50;99.90
20528;DHT22;23612;50.894;10.700;2023-03-01T08:02:50;6.40;99.90
20528;DHT22;23612;50.894;10.700;2023-03-01T08:05:16;7.00;99.90
20528;DHT22;23612;50.894;10.700;2023-03-01T08:07:42;7.00;99.90
20528;DHT22;23612;50.894;10.700;2023-03-01T08:10:08;6.20;99.90
20528;DHT22;23612;50.894;10.700;2023-03-01T08:12:33;5.90;99.90
20528;DHT22;23612;50.894;10.700;2023-03-01T08:14:59;5.70;99.90
20528;DHT22;23612;50.894;10.700;2023-03-01T08:17:24;5.70;99.90
20528;DHT22;23612;50.894;10.700;2023-03-01T08:19:50;6.20;99.90
20528;DHT22;23612;50.894;10.700;2023-03-01T08:22:15;5.80;99.90
20528;DHT22;23612;50.894;10.700;2023-03-01T08:24:41;6.10;99.90
20528;DHT22;23612;50.894;10.700;2023-03-01T08:27:06;6.10;99.90
20528;DHT22;23612;50.894;10.700;2023-03-01T08:29:32;6.60;99.90
20528;DHT22;23612;50.894;10.700;2023-03-01T08:31:58;6.80;99.90
20528;DHT22;23612;50.894;10.700;2023-03-01T08:34:24;7.10;99.90
20528;DHT22;23612;50.894;10.700;2023-03-01T08:36:50;7.20;99.90
20528;DHT22;23612;50.894;10.700;2023-03-01T08:39:18;7.70;99.90
20528;DHT22;23612;50.894;10.700;2023-03-01T08:41:44;8.20;99.90
20528;DHT22;23612;50.894;10.700;2023-03-01T08:44:12;8.00;99.90
20528;DHT22;23612;50.894;10.700;2023-03-01T08:46:40;7.40;99.90
20528;DHT22;23612;50.894;10.700;2023-03-01T08:49:08;8.10;99.90
20528;DHT22;23612;50.894;10.700;2023-03-01T08:51:35;7.00;99.90
20528;DHT22;23612;50.894;10.700;2023-03-01T08:54:07;6.90;99.90
20528;DHT22;23612;50.894;10.700;2023-03-01T08:56:35;6.30;99.90
20528;DHT22;23612;50.894;10.700;2023-03-01T08:59:00;6.10;99.90
20528;DHT22;23612;50.894;10.700;2023-03-01T09:01:26;6.80;99.90
20528;DHT22;23612;50.894;10.700;2023-03-01T09:03:51;7.00;99.90
20528;DHT22;23612;50.894;10.700;2023-03-01T09:06:17;6.80;99.90
20528;DHT22;23612;50.894;10.700;2023-03-01T09:08:46;6.90;99.90
20528;DHT22;23612;50.894;10.700;2023-03-01T09:11:14;7.20;99.90
20528;DHT22;23612;50.894;10.700;2023-03-01T09:13:41;7.80;99.90
20528;DHT22;23612;50.894;10.700;2023-03-01T09:16:07;7.10;99.90
20528;DHT22;23612;50.894;10.700;2023-03-01T09:18:34;6.80;99.90
20528;DHT22;23612;50.894;10.700;2023-03-01T09:21:16;6.20;99.90
20528;DHT22;23612;50.894;10.700;2023-03-01T09:23:45;6.70;99.90
20528;DHT22;23612;50.894;10.700;2023-03-01T09:26:16;7.40;99.90
20528;DHT22;23612;50.894;10.700;2023-03-01T09:28:42;6.90;99.90
20528;DHT22;23612;50.894;10.700;2023-03-01T09:31:09;6.70;99.90
20528;DHT22;23612;50.894;10.700;2023-03-01T09:33:35;7.00;99.90
20528;DHT22;23612;50.894;10.700;2023-03-01T09:36:02;7.00;99.90
20528;DHT22;23612;50.894;10.700;2023-03-01T09:38:29;6.80;99.90
20528;DHT22;23612;50.894;10.700;2023-03-01T09:40:55;7.50;99.90
20528;DHT22;23612;50.894;10.700;2023-03-01T09:45:47;7.40;99.90
20528;DHT22;23612;50.894;10.700;2023-03-01T09:48:18;7.90;99.90
20528;DHT22;23612;50.894;10.700;2023-03-01T09:50:44;8.40;99.90
20528;DHT22;23612;50.894;10.700;2023-03-01T09:53:17;8.40;99.90
20528;DHT22;23612;50.894;10.700;2023-03-01T09:56:04;7.80;99.90
20528;DHT22;23612;50.894;10.700;2023-03-01T09:58:37;8.30;99.90
20528;DHT22;23612;50.894;10.700;2023-03-01T10:04:10;7.60;99.90
20528;DHT22;23612;50.894;10.700;2023-03-01T10:06:39;8.50;99.90
20528;DHT22;23612;50.894;10.700;2023-03-01T10:09:16;7.70;99.90
20528;DHT22;23612;50.894;10.700;2023-03-01T10:11:45;8.90;99.90
20528;DHT22;23612;50.894;10.700;2023-03-01T10:14:32;9.10;99.90
20528;DHT22;23612;50.894;10.700;2023-03-01T10:17:03;8.80;99.90
20528;DHT22;23612;50.894;10.700;2023-03-01T10:19:31;8.00;99.90
20528;DHT22;23612;50.894;10.700;2023-03-01T10:22:26;7.90;99.90
20528;DHT22;23612;50.894;10.700;2023-03-01T10:24:51;7.90;99.90
20528;DHT22;23612;50.894;10.700;2023-03-01T10:27:23;8.50;99.90
20528;DHT22;23612;50.894;10.700;2023-03-01T10:30:13;8.10;99.90
20528;DHT22;23612;50.894;10.700;2023-03-01T10:32:42;7.90;99.90
20528;DHT22;23612;50.894;10.700;2023-03-01T10:35:34;8.00;99.90
20528;DHT22;23612;50.894;10.700;2023-03-01T10:38:09;7.60;99.90
20528;DHT22;23612;50.894;10.700;2023-03-01T10:40:36;7.20;99.90
20528;DHT22;23612;50.894;10.700;2023-03-01T10:43:14;7.10;99.90
20528;DHT22;23612;50.894;10.700;2023-03-01T10:45:40;7.90;99.90
20528;DHT22;23612;50.894;10.700;2023-03-01T10:48:13;8.30;99.90
20528;DHT22;23612;50.894;10.700;2023-03-01T10:50:40;7.70;99.90
20528;DHT22;23612;50.894;10.700;2023-03-01T10:53:27;7.60;99.90
20528;DHT22;23612;50.894;10.700;2023-03-01T10:56:08;8.30;99.90
20528;DHT22;23612;50.894;10.700;2023-03-01T10:58:37;8.20;99.90
20528;DHT22;23612;50.894;10.700;2023-03-01T11:01:08;8.50;99.90
20528;DHT22;23612;50.894;10.700;2023-03-01T11:06:37;9.60;99.90
20528;DHT22;23612;50.894;10.700;2023-03-01T11:09:21;10.00;99.90
20528;DHT22;23612;50.894;10.700;2023-03-01T11:11:56;10.50;99.90
20528;DHT22;23612;50.894;10.700;2023-03-01T11:14:24;11.00;99.90
20528;DHT22;23612;50.894;10.700;2023-03-01T11:17:21;11.00;99.90
20528;DHT22;23612;50.894;10.700;2023-03-01T11:22:48;11.80;98.40
20528;DHT22;23612;50.894;10.700;2023-03-01T11:25:17;11.50;97.70
20528;DHT22;23612;50.894;10.700;2023-03-01T11:27:45;11.90;98.00
20528;DHT22;23612;50.894;10.700;2023-03-01T11:30:23;11.20;97.80
20528;DHT22;23612;50.894;10.700;2023-03-01T11:32:52;10.90;98.70
20528;DHT22;23612;50.894;10.700;2023-03-01T11:35:25;10.50;99.20
20528;DHT22;23612;50.894;10.700;2023-03-01T11:38:22;10.80;99.90
20528;DHT22;23612;50.894;10.700;2023-03-01T11:43:53;9.80;99.90
20528;DHT22;23612;50.894;10.700;2023-03-01T11:46:33;8.70;99.90
20528;DHT22;23612;50.894;10.700;2023-03-01T11:51:38;7.20;99.90
20528;DHT22;23612;50.894;10.700;2023-03-01T11:56:48;7.60;99.90
20528;DHT22;23612;50.894;10.700;2023-03-01T12:02:16;8.30;99.90
20528;DHT22;23612;50.894;10.700;2023-03-01T12:05:08;8.50;99.90
20528;DHT22;23612;50.894;10.700;2023-03-01T12:21:52;11.60;99.90
20528;DHT22;23612;50.894;10.700;2023-03-01T12:24:44;11.60;99.90
20528;DHT22;23612;50.894;10.700;2023-03-01T12:27:47;11.70;99.90
20528;DHT22;23612;50.894;10.700;2023-03-01T12:33:17;11.10;99.90
20528;DHT22;23612;50.894;10.700;2023-03-01T12:35:57;10.50;99.90
20528;DHT22;23612;50.894;10.700;2023-03-01T12:39:32;10.60;99.90
20528;DHT22;23612;50.894;10.700;2023-03-01T12:41:37;11.20;99.90
20528;DHT22;23612;50.894;10.700;2023-03-01T12:44:11;11.30;99.90
20528;DHT22;23612;50.894;10.700;2023-03-01T12:46:41;10.60;99.90
20528;DHT22;23612;50.894;10.700;2023-03-01T12:49:17;10.70;99.90
20528;DHT22;23612;50.894;10.700;2023-03-01T12:52:00;11.40;99.90
20528;DHT22;23612;50.894;10.700;2023-03-01T12:54:33;12.00;99.90
20528;DHT22;23612;50.894;10.700;2023-03-01T12:57:06;11.90;99.90
20528;DHT22;23612;50.894;10.700;2023-03-01T13:02:26;12.00;99.90
20528;DHT22;23612;50.894;10.700;2023-03-01T13:08:09;12.00;99.90
20528;DHT22;23612;50.894;10.700;2023-03-01T13:10:51;12.00;99.90
20528;DHT22;23612;50.894;10.700;2023-03-01T13:13:26;11.60;99.90
20528;DHT22;23612;50.894;10.700;2023-03-01T13:15:52;11.40;99.90
20528;DHT22;23612;50.894;10.700;2023-03-01T13:20:46;10.60;99.90
20528;DHT22;23612;50.894;10.700;2023-03-01T13:26:13;10.50;99.90
20528;DHT22;23612;50.894;10.700;2023-03-01T13:34:00;11.30;99.90
20528;DHT22;23612;50.894;10.700;2023-03-01T13:46:44;10.70;99.90
20528;DHT22;23612;50.894;10.700;2023-03-01T13:49:15;11.20;99.90
20528;DHT22;23612;50.894;10.700;2023-03-01T13:51:41;10.60;99.90
20528;DHT22;23612;50.894;10.700;2023-03-01T13:54:12;9.90;99.90
20528;DHT22;23612;50.894;10.700;2023-03-01T13:56:39;9.80;99.90
20528;DHT22;23612;50.894;10.700;2023-03-01T13:59:17;8.90;99.90
20528;DHT22;23612;50.894;10.700;2023-03-01T14:01:42;8.60;99.90
20528;DHT22;23612;50.894;10.700;2023-03-01T14:04:21;8.20;99.90
20528;DHT22;23612;50.894;10.700;2023-03-01T14:06:47;8.70;99.90
20528;DHT22;23612;50.894;10.700;2023-03-01T14:09:22;8.80;99.90
20528;DHT22;23612;50.894;10.700;2023-03-01T14:15:23;9.00;99.90
20528;DHT22;23612;50.894;10.700;2023-03-01T14:18:06;9.00;99.90
20528;DHT22;23612;50.894;10.700;2023-03-01T14:20:45;8.10;99.90
20528;DHT22;23612;50.894;10.700;2023-03-01T14:23:23;7.30;99.90
20528;DHT22;23612;50.894;10.700;2023-03-01T14:25:54;7.20;99.90
20528;DHT22;23612;50.894;10.700;2023-03-01T14:28:23;6.90;99.90
